createdAt,value
2022-08-20T00:00:47.734Z,6.60
2022-08-20T00:10:47.697Z,7.40
2022-08-20T00:20:47.010Z,11.30
2022-08-20T00:30:52.157Z,12.30
2022-08-20T00:40:51.777Z,15.40
2022-08-20T00:50:51.393Z,16.90
2022-08-20T01:00:51.034Z,19.20
2022-08-20T01:10:50.656Z,20.20
2022-08-20T01:20:55.795Z,21.20
2022-08-20T01:30:55.421Z,19.80
2022-08-20T01:40:55.041Z,21.10
2022-08-20T01:50:54.674Z,19.70
2022-08-20T02:00:54.318Z,17.10
2022-08-20T02:10:59.454Z,18.40
2022-08-20T02:20:59.086Z,17.20
2022-08-20T02:30:58.695Z,17.50
2022-08-20T02:40:58.342Z,17.50
2022-08-20T02:50:57.951Z,16.70
2022-08-20T03:01:03.154Z,15.00
2022-08-20T03:11:02.722Z,15.80
2022-08-20T03:21:02.353Z,17.10
2022-08-20T03:31:01.986Z,16.30
2022-08-20T03:41:01.650Z,17.40
2022-08-20T03:51:01.746Z,17.00
2022-08-20T04:01:06.906Z,16.20
2022-08-20T04:11:06.535Z,17.00
2022-08-20T04:21:06.144Z,16.60
2022-08-20T04:31:05.775Z,19.40
2022-08-20T04:41:05.419Z,17.90
2022-08-20T04:51:10.570Z,16.90
2022-08-20T05:01:10.232Z,17.30
2022-08-20T05:11:30.090Z,16.00
2022-08-20T05:21:09.459Z,13.80
2022-08-20T05:31:09.089Z,15.10
2022-08-20T05:41:14.215Z,15.40
2022-08-20T05:51:15.264Z,16.00
2022-08-20T06:01:13.520Z,15.60
2022-08-20T06:11:13.107Z,18.90
2022-08-20T06:21:12.737Z,14.60
2022-08-20T06:31:12.642Z,12.10
2022-08-20T06:41:17.789Z,9.10
2022-08-20T06:51:17.414Z,8.70
2022-08-20T07:01:17.120Z,8.40
2022-08-20T07:11:16.706Z,12.20
2022-08-20T07:21:16.350Z,9.60
2022-08-20T07:31:16.359Z,7.60
2022-08-20T07:41:21.497Z,8.80
2022-08-20T07:51:21.137Z,13.40
2022-08-20T08:01:20.844Z,19.10
2022-08-20T08:11:20.446Z,15.20
2022-08-20T08:21:20.058Z,14.30
2022-08-20T08:31:25.200Z,24.50
2022-08-20T08:41:24.837Z,23.30
2022-08-20T08:51:24.463Z,25.70
2022-08-20T09:01:53.635Z,24.90
2022-08-20T09:11:23.728Z,26.80
2022-08-20T09:21:23.352Z,24.00
2022-08-20T09:31:23.462Z,24.20
2022-08-20T09:41:28.603Z,26.20
2022-08-20T09:51:28.247Z,29.70
2022-08-20T10:01:27.968Z,29.70
2022-08-20T10:11:27.519Z,31.40
2022-08-20T10:21:27.179Z,27.80
2022-08-20T10:31:26.816Z,28.50
2022-08-20T10:41:26.919Z,28.20
2022-08-20T10:51:32.480Z,28.90
2022-08-20T11:01:34.039Z,22.60
2022-08-20T11:11:31.346Z,23.20
2022-08-20T11:21:30.989Z,23.90
2022-08-20T11:31:30.624Z,19.70
2022-08-20T11:41:30.266Z,17.50
2022-08-20T11:51:38.807Z,14.20
2022-08-20T12:01:35.043Z,17.70
2022-08-20T12:11:34.689Z,15.20
2022-08-20T12:21:34.323Z,14.50
2022-08-20T12:31:33.965Z,14.90
2022-08-20T12:41:33.847Z,14.70
2022-08-20T12:51:38.997Z,14.30
2022-08-20T13:01:38.678Z,13.00
2022-08-20T13:11:38.272Z,10.70
2022-08-20T13:21:37.913Z,13.10
2022-08-20T13:31:43.051Z,12.70
2022-08-20T13:41:42.719Z,10.40
2022-08-20T13:51:42.364Z,11.10
2022-08-20T14:01:42.086Z,10.60
2022-08-20T14:11:41.753Z,11.00
2022-08-20T14:21:46.891Z,9.90
2022-08-20T14:31:46.531Z,10.90
2022-08-20T14:41:46.192Z,9.20
2022-08-20T14:51:46.084Z,10.30
2022-08-20T15:01:51.218Z,9.70
2022-08-20T15:11:50.862Z,10.00
2022-08-20T15:21:50.530Z,11.10
2022-08-20T15:31:55.663Z,12.60
2022-08-20T15:41:55.293Z,11.70
2022-08-20T15:51:54.953Z,12.10
2022-08-20T16:01:54.626Z,14.00
2022-08-20T16:11:59.735Z,11.20
2022-08-20T16:21:59.347Z,9.40
2022-08-20T16:31:59.008Z,10.00
2022-08-20T16:41:58.743Z,9.40
2022-08-20T16:52:03.894Z,10.30
2022-08-20T17:02:04.496Z,11.30
2022-08-20T17:12:03.200Z,11.30
2022-08-20T17:22:03.137Z,9.90
2022-08-20T17:32:08.297Z,10.60
2022-08-20T17:42:08.038Z,9.60
2022-08-20T17:52:07.570Z,9.50
2022-08-20T18:02:07.331Z,10.10
2022-08-20T18:12:21.669Z,10.20
2022-08-20T18:22:12.002Z,11.20
2022-08-20T18:32:11.682Z,9.40
2022-08-20T18:42:11.283Z,8.00
2022-08-20T18:52:16.422Z,10.50
2022-08-20T19:02:16.039Z,10.00
2022-08-20T19:12:15.664Z,10.20
2022-08-20T19:22:15.311Z,11.00
2022-08-20T19:32:20.679Z,9.70
2022-08-20T19:42:20.098Z,10.80
2022-08-20T19:52:19.742Z,9.40
2022-08-20T20:02:19.888Z,11.70
2022-08-20T20:12:21.462Z,11.50
2022-08-20T20:22:24.156Z,8.90
2022-08-20T20:32:25.752Z,11.50
2022-08-20T20:42:23.150Z,10.70
2022-08-20T20:52:22.805Z,14.30
2022-08-20T21:02:22.313Z,11.20
2022-08-20T21:12:27.426Z,10.00
2022-08-20T21:22:27.058Z,13.20
2022-08-20T21:32:26.648Z,11.70
2022-08-20T21:42:28.827Z,11.70
2022-08-20T21:52:25.909Z,12.90
2022-08-20T22:02:31.472Z,13.20
2022-08-20T22:12:30.632Z,13.80
2022-08-20T22:22:30.231Z,11.60
2022-08-20T22:32:33.332Z,13.80
2022-08-20T22:42:29.465Z,11.90
2022-08-20T22:52:29.059Z,12.40
2022-08-20T23:02:34.186Z,12.10
2022-08-20T23:12:33.798Z,10.40
2022-08-20T23:22:33.413Z,9.70
2022-08-20T23:32:33.010Z,10.70
2022-08-20T23:42:32.645Z,9.50
2022-08-20T23:52:32.238Z,10.00
